Time;durP1;ratioP1;P1;durP2;ratioP2;P2;SDS_P1;SDS_P2;PMS_P1;PMS_P2;Temp;Humidity;BMP_temperature;BMP_pressure;BME280_temperature;BME280_humidity;BME280_pressure;Samples;Min_cycle;Max_cycle;Signal;HPM_P1;HPM_P2
2022/12/14 00:01:25;;;;;;;2.72;2.05;;;;;;;-2.14;84.68;100687.31;5093382;27;97829;-31
2022/12/14 00:03:52;;;;;;;1.15;1.05;;;;;;;-2.10;84.75;100688.16;5074542;27;100705;-31
2022/12/14 00:06:19;;;;;;;1.98;1.10;;;;;;;-2.11;84.38;100687.28;5074155;27;97191;-31
2022/12/14 00:08:46;;;;;;;1.13;1.02;;;;;;;-2.11;84.54;100679.31;5093134;27;96502;-33
2022/12/14 00:11:13;;;;;;;7.55;2.83;;;;;;;-2.16;84.17;100674.06;5074312;27;103616;-31
2022/12/14 00:13:39;;;;;;;1.05;0.95;;;;;;;-2.17;84.61;100668.78;5074365;27;101007;-31
2022/12/14 00:16:16;;;;;;;1.20;1.10;;;;;;;-2.15;84.40;100675.81;5074512;27;96700;-31
2022/12/14 00:18:42;;;;;;;1.25;1.08;;;;;;;-2.13;84.58;100670.50;5092843;27;96899;-31
2022/12/14 00:21:09;;;;;;;2.97;2.65;;;;;;;-2.10;84.55;100661.63;5074285;27;99061;-32
2022/12/14 00:23:36;;;;;;;0.65;0.65;;;;;;;-2.11;84.45;100663.41;5074092;27;100973;-31
2022/12/14 00:26:11;;;;;;;1.45;1.35;;;;;;;-2.15;84.67;100654.59;5095394;27;96485;-32
2022/12/14 00:28:37;;;;;;;0.77;0.77;;;;;;;-2.13;84.51;100643.97;5077669;27;96881;-31
2022/12/14 00:31:03;;;;;;;4.20;0.73;;;;;;;-2.13;84.26;100641.31;5077248;27;101352;-32
2022/12/14 00:33:28;;;;;;;4.65;1.77;;;;;;;-2.13;84.40;100643.97;5096347;27;97315;-31
2022/12/14 00:35:54;;;;;;;1.48;1.13;;;;;;;-2.12;84.59;100640.44;5096655;27;96640;-32
2022/12/14 00:38:19;;;;;;;1.98;0.52;;;;;;;-2.11;84.54;100636.88;5096516;27;96828;-33
2022/12/14 00:40:44;;;;;;;3.55;2.15;;;;;;;-2.11;84.12;100633.34;5096063;27;104190;-31
2022/12/14 00:43:10;;;;;;;1.55;0.95;;;;;;;-2.11;84.43;100625.38;5096054;27;99074;-31
2022/12/14 00:45:35;;;;;;;0.80;0.75;;;;;;;-2.13;83.97;100622.75;5077587;27;96534;-31
2022/12/14 00:48:01;;;;;;;4.10;2.15;;;;;;;-2.16;83.80;100623.66;5096915;27;96828;-32
2022/12/14 00:50:26;;;;;;;3.15;2.08;;;;;;;-2.18;83.83;100620.16;5095955;27;99453;-31
2022/12/14 00:52:52;;;;;;;1.67;1.40;;;;;;;-2.15;84.03;100614.78;5095844;27;99104;-33
2022/12/14 00:55:17;;;;;;;1.85;1.27;;;;;;;-2.19;83.52;100614.88;5095738;27;98918;-31
2022/12/14 00:57:42;;;;;;;1.00;0.95;;;;;;;-2.17;83.55;100610.41;5096358;27;96874;-31
2022/12/14 01:00:08;;;;;;;1.88;1.15;;;;;;;-2.16;83.83;100612.19;5095806;27;99711;-31
2022/12/14 01:02:33;;;;;;;1.23;1.10;;;;;;;-2.16;83.73;100604.22;5077280;27;101911;-32
2022/12/14 01:04:59;;;;;;;1.67;0.90;;;;;;;-2.16;83.71;100601.56;5095936;27;97994;-31
2022/12/14 01:07:25;;;;;;;1.30;1.05;;;;;;;-2.17;83.95;100595.38;5095997;27;96847;-31
2022/12/14 01:09:50;;;;;;;1.02;0.95;;;;;;;-2.19;83.62;100588.34;5095869;27;97928;-32
2022/12/14 01:12:15;;;;;;;3.75;1.83;;;;;;;-2.16;84.15;100597.13;5077074;27;97960;-31
2022/12/14 01:14:41;;;;;;;3.03;1.77;;;;;;;-2.16;83.86;100585.66;5096030;27;96520;-32
2022/12/14 01:17:06;;;;;;;0.85;0.73;;;;;;;-2.16;83.75;100594.47;5095834;27;96747;-32
2022/12/14 01:19:33;;;;;;;2.72;1.88;;;;;;;-2.16;83.74;100598.91;5094943;27;98675;-31
2022/12/14 01:21:58;;;;;;;0.73;0.73;;;;;;;-2.19;83.44;100591.88;5077143;27;99033;-32
2022/12/14 01:24:24;;;;;;;3.25;2.50;;;;;;;-2.20;83.59;100597.19;5094669;27;96829;-32
2022/12/14 01:26:49;;;;;;;2.47;1.65;;;;;;;-2.17;83.63;100603.34;5095869;27;96806;-32
2022/12/14 01:29:15;;;;;;;2.53;1.95;;;;;;;-2.16;83.78;100605.09;5095534;27;97900;-31
2022/12/14 01:31:41;;;;;;;1.85;1.27;;;;;;;-2.17;83.55;100606.00;5095181;27;99229;-32
2022/12/14 01:34:07;;;;;;;1.38;1.20;;;;;;;-2.18;83.47;100609.53;5076878;27;96683;-32
2022/12/14 01:36:35;;;;;;;0.73;0.70;;;;;;;-2.16;83.65;100604.22;5094705;27;96813;-32
2022/12/14 01:39:12;;;;;;;2.67;2.47;;;;;;;-2.17;83.44;100599.78;5076747;27;100639;-32
2022/12/14 01:41:51;;;;;;;0.65;0.45;;;;;;;-2.11;83.72;100604.16;5095422;27;98072;-32
2022/12/14 01:44:16;;;;;;;0.68;0.68;;;;;;;-2.10;83.65;100609.41;5094952;27;96581;-32
2022/12/14 01:46:55;;;;;;;1.23;0.85;;;;;;;-2.11;83.79;100609.47;5095684;27;96839;-32
2022/12/14 01:49:42;;;;;;;0.63;0.55;;;;;;;-2.11;83.48;100598.84;5076586;27;101153;-31
2022/12/14 01:52:37;;;;;;;0.57;0.57;;;;;;;-2.10;83.72;100597.94;5076277;27;101020;-31
2022/12/14 01:55:12;;;;;;;2.17;2.03;;;;;;;-2.11;83.78;100599.72;5074501;27;96575;-32
2022/12/14 01:57:43;;;;;;;0.90;0.63;;;;;;;-2.10;83.59;100589.97;5076799;27;96792;-32
2022/12/14 02:00:15;;;;;;;1.07;0.97;;;;;;;-2.12;83.59;100584.72;5076301;27;101494;-32
2022/12/14 02:02:49;;;;;;;1.80;1.70;;;;;;;-2.11;83.83;100585.59;5095561;27;97863;-33
2022/12/14 02:05:19;;;;;;;2.35;1.70;;;;;;;-2.11;83.71;100585.59;5095392;27;96773;-32
2022/12/14 02:07:47;;;;;;;1.50;1.40;;;;;;;-2.11;83.91;100588.25;5076526;27;96771;-32
2022/12/14 02:10:13;;;;;;;1.17;1.00;;;;;;;-2.11;84.00;100586.44;5075725;27;100922;-31
2022/12/14 02:12:46;;;;;;;1.75;1.58;;;;;;;-2.08;84.00;100593.50;5094849;27;96625;-31
2022/12/14 02:15:13;;;;;;;1.65;1.42;;;;;;;-2.09;83.91;100597.06;5076250;27;96582;-31
2022/12/14 02:17:40;;;;;;;1.67;1.00;;;;;;;-2.10;83.91;100597.94;5094817;27;96849;-32
2022/12/14 02:20:05;;;;;;;2.42;1.58;;;;;;;-2.11;83.97;100591.75;5075823;27;100789;-32
2022/12/14 02:23:12;;;;;;;1.73;1.33;;;;;;;-2.07;83.79;100592.56;5094500;27;99163;-31
2022/12/14 02:26:19;;;;;;;0.80;0.52;;;;;;;-2.12;83.73;100595.31;5083212;27;96887;-32
2022/12/14 02:29:03;;;;;;;0.30;0.30;;;;;;;-2.10;83.62;100600.59;5076545;27;96735;-31
2022/12/14 02:31:46;;;;;;;1.33;1.08;;;;;;;-2.08;83.87;100604.09;5075838;27;99079;-31
2022/12/14 02:34:23;;;;;;;;;;;;;;;-2.11;83.36;100596.19;5076539;27;101290;-32
2022/12/14 02:37:01;;;;;;;0.08;0.08;;;;;;;-2.15;83.58;100590.03;5094314;27;96580;-32
2022/12/14 02:39:41;;;;;;;2.20;2.00;;;;;;;-2.15;83.55;100587.38;5075838;27;96709;-32
2022/12/14 02:42:14;;;;;;;0.43;0.43;;;;;;;-2.21;83.57;100579.53;5075553;27;100711;-33
2022/12/14 02:44:54;;;;;;;2.10;1.42;;;;;;;-2.17;83.48;100587.44;5075823;27;100900;-32
2022/12/14 02:47:31;;;;;;;0.95;0.88;;;;;;;-2.19;83.39;100583.91;5094573;27;96556;-31
2022/12/14 02:50:21;;;;;;;1.00;0.95;;;;;;;-2.16;83.70;100588.28;5075880;27;96655;-33
2022/12/14 02:53:00;;;;;;;0.75;0.75;;;;;;;-2.17;83.31;100589.19;5094246;27;98086;-31
2022/12/14 02:55:40;;;;;;;0.20;0.20;;;;;;;-2.17;83.49;100587.44;5076030;27;100908;-32
2022/12/14 02:58:23;;;;;;;0.50;0.40;;;;;;;-2.16;83.47;100577.69;5094626;27;96654;-31
2022/12/14 03:00:49;;;;;;;3.70;1.50;;;;;;;-2.19;83.56;100589.22;5075499;27;96775;-31
2022/12/14 03:03:15;;;;;;;0.98;0.90;;;;;;;-2.19;83.63;100583.03;5093531;27;98977;-32
2022/12/14 03:05:40;;;;;;;1.85;1.27;;;;;;;-2.19;83.63;100567.13;5075285;27;100702;-32
2022/12/14 03:08:11;;;;;;;1.55;1.40;;;;;;;-2.16;83.47;100569.72;5094524;27;96823;-31
2022/12/14 03:10:44;;;;;;;0.80;0.60;;;;;;;-2.23;83.01;100560.97;5075486;27;96722;-31
2022/12/14 03:13:29;;;;;;;1.38;1.27;;;;;;;-2.22;83.20;100557.41;5074920;27;100611;-33
2022/12/14 03:16:06;;;;;;;2.78;2.22;;;;;;;-2.22;83.38;100559.19;5094104;27;97810;-31
2022/12/14 03:18:41;;;;;;;0.98;0.73;;;;;;;-2.26;83.14;100560.16;5075194;27;96679;-32
2022/12/14 03:21:11;;;;;;;0.35;0.35;;;;;;;-2.27;82.97;100546.00;5075821;27;96556;-31
2022/12/14 03:23:40;;;;;;;1.38;1.02;;;;;;;-2.26;83.37;100537.16;5074168;27;101255;-33
2022/12/14 03:26:28;;;;;;;1.38;1.27;;;;;;;-2.26;83.25;100534.50;5093911;27;97771;-32
2022/12/14 03:28:59;;;;;;;2.00;1.23;;;;;;;-2.25;83.26;100538.03;5074613;27;97046;-32
2022/12/14 03:31:32;;;;;;;1.73;1.63;;;;;;;-2.27;83.66;100538.03;5075235;27;97242;-31
2022/12/14 03:34:01;;;;;;;1.50;0.75;;;;;;;-2.29;83.07;100533.66;5074722;27;101391;-31
2022/12/14 03:37:16;;;;;;;0.90;0.90;;;;;;;-2.27;82.97;100540.69;5074966;27;100698;-32
2022/12/14 03:39:43;;;;;;;1.17;1.08;;;;;;;-2.30;83.08;100530.13;5044179;27;96733;-32
2022/12/14 03:42:32;;;;;;;0.88;0.80;;;;;;;-2.29;83.11;100528.34;5075060;27;96796;-31
2022/12/14 03:45:24;;;;;;;0.40;0.40;;;;;;;-2.29;82.82;100529.22;5074742;27;100822;-34
2022/12/14 03:47:53;;;;;;;5.93;2.33;;;;;;;-2.28;82.54;100522.16;5093886;27;97690;-31
2022/12/14 03:50:39;;;;;;;0.43;0.32;;;;;;;-2.28;83.01;100514.19;5093317;27;96604;-34
2022/12/14 03:53:26;;;;;;;0.70;0.70;;;;;;;-2.29;82.70;100515.94;5093181;27;96750;-32
2022/12/14 03:56:18;;;;;;;0.93;0.93;;;;;;;-2.29;82.81;100505.34;5093008;27;97426;-32
2022/12/14 03:59:05;;;;;;;0.55;0.52;;;;;;;-2.26;83.14;100507.09;5074604;27;100766;-33
2022/12/14 04:01:39;;;;;;;1.77;1.30;;;;;;;-2.25;82.89;100500.88;5096982;27;96475;-33
2022/12/14 04:04:20;;;;;;;0.75;0.75;;;;;;;-2.25;82.78;100496.44;5078397;27;96786;-31
2022/12/14 04:06:50;;;;;;;0.90;0.88;;;;;;;-2.26;82.79;100502.66;5097008;27;97808;-32
2022/12/14 04:09:37;;;;;;;2.17;1.88;;;;;;;-2.25;82.77;100503.53;5078166;27;100997;-33
2022/12/14 04:20:43;;;;;;;1.00;0.98;;;;;;;-2.35;82.40;100494.84;5096819;27;97123;-32
2022/12/14 04:26:22;;;;;;;1.75;1.27;;;;;;;-2.33;82.35;100492.19;5096778;27;96644;-32
2022/12/14 04:32:16;;;;;;;0.77;0.75;;;;;;;-2.32;82.75;100481.53;5096772;27;96965;-32
2022/12/14 04:34:45;;;;;;;1.38;0.85;;;;;;;-2.30;82.76;100486.81;5077783;27;96585;-32
2022/12/14 04:37:16;;;;;;;1.27;1.13;;;;;;;-2.33;82.71;100481.56;5078089;27;96512;-31
2022/12/14 04:39:54;;;;;;;1.08;0.70;;;;;;;-2.32;82.66;100478.00;5096481;27;97565;-31
2022/12/14 04:42:27;;;;;;;1.48;1.00;;;;;;;-2.32;82.63;100478.00;5077918;27;100959;-33
2022/12/14 04:44:59;;;;;;;1.95;0.95;;;;;;;-2.35;82.44;100468.31;5077602;27;96959;-31
2022/12/14 04:47:31;;;;;;;0.73;0.73;;;;;;;-2.35;82.53;100478.94;5077876;27;96722;-31
2022/12/14 04:50:19;;;;;;;1.98;1.02;;;;;;;-2.32;82.81;100472.69;5077289;27;100492;-32
2022/12/14 04:52:52;;;;;;;2.35;1.30;;;;;;;-2.38;82.68;100469.25;5077404;27;100804;-33
2022/12/14 04:55:34;;;;;;;0.35;0.35;;;;;;;-2.35;83.10;100471.84;5077633;27;96783;-32
2022/12/14 04:58:23;;;;;;;3.00;1.92;;;;;;;-2.34;82.69;100470.06;5077659;27;96779;-31
2022/12/14 05:01:19;;;;;;;0.70;0.70;;;;;;;-2.38;82.15;100457.75;5077523;27;100935;-32
2022/12/14 05:04:12;;;;;;;1.20;1.10;;;;;;;-2.37;82.35;100460.38;5095804;27;97318;-32
2022/12/14 05:06:45;;;;;;;1.70;1.40;;;;;;;-2.36;82.38;100461.25;5096162;27;96605;-31
2022/12/14 05:09:23;;;;;;;1.98;0.95;;;;;;;-2.37;82.75;100456.84;5096586;27;96618;-32
2022/12/14 05:11:55;;;;;;;4.85;2.53;;;;;;;-2.39;82.87;100456.88;5075745;27;101110;-32
2022/12/14 05:14:50;;;;;;;1.42;1.05;;;;;;;-2.38;82.46;100455.13;5077051;27;100811;-32
2022/12/14 05:17:16;;;;;;;1.20;1.10;;;;;;;-2.39;82.31;100451.56;5076882;27;97347;-31
2022/12/14 05:19:46;;;;;;;0.28;0.28;;;;;;;-2.39;82.58;100459.50;5095537;27;96797;-32
2022/12/14 05:22:12;;;;;;;0.47;0.45;;;;;;;-2.37;82.33;100462.16;5095683;27;97516;-32
2022/12/14 05:24:37;;;;;;;3.40;0.75;;;;;;;-2.40;82.88;100455.13;5076238;27;100922;-31
2022/12/14 05:27:03;;;;;;;0.22;0.22;;;;;;;-2.39;82.10;100459.50;5095872;27;96607;-31
2022/12/14 05:29:28;;;;;;;0.85;0.65;;;;;;;-2.40;82.54;100454.25;5096032;27;96748;-31
2022/12/14 05:31:54;;;;;;;2.42;1.15;;;;;;;-2.44;81.86;100448.09;5095318;27;99513;-31
2022/12/14 05:34:19;;;;;;;0.82;0.77;;;;;;;-2.43;81.97;100446.31;5095886;27;97874;-31
2022/12/14 05:36:45;;;;;;;4.13;1.98;;;;;;;-2.42;82.09;100454.25;5095889;27;96612;-31
2022/12/14 05:39:10;;;;;;;2.85;1.55;;;;;;;-2.44;82.19;100458.72;5095162;27;96855;-32
2022/12/14 05:41:35;;;;;;;1.95;1.52;;;;;;;-2.47;82.08;100455.25;5094976;27;98584;-31
2022/12/14 05:44:00;;;;;;;4.55;1.60;;;;;;;-2.47;82.16;100463.19;5076534;27;102711;-32
2022/12/14 05:46:26;;;;;;;0.28;0.28;;;;;;;-2.50;81.89;100456.16;5095490;27;96539;-31
2022/12/14 05:48:51;;;;;;;1.25;0.93;;;;;;;-2.53;81.90;100453.53;5095021;27;104092;-32
2022/12/14 05:51:16;;;;;;;1.35;0.70;;;;;;;-2.53;81.74;100457.97;5094994;27;99589;-32
2022/12/14 05:53:42;;;;;;;0.52;0.52;;;;;;;-2.53;81.70;100455.31;5094944;27;98228;-32
2022/12/14 05:56:09;;;;;;;2.00;0.88;;;;;;;-2.56;81.85;100446.50;5095486;27;96569;-32
2022/12/14 05:58:35;;;;;;;3.85;2.05;;;;;;;-2.56;82.00;100454.47;5095611;27;96855;-31
2022/12/14 06:01:03;;;;;;;0.98;0.85;;;;;;;-2.57;81.73;100455.38;5076416;27;100982;-32
2022/12/14 06:03:29;;;;;;;1.73;1.58;;;;;;;-2.62;81.63;100451.03;5076261;27;100742;-32
2022/12/14 06:06:00;;;;;;;0.22;0.22;;;;;;;-2.62;81.74;100445.75;5094620;27;96559;-32
2022/12/14 06:08:26;;;;;;;0.55;0.55;;;;;;;-2.64;81.64;100452.84;5076349;27;97050;-31
2022/12/14 06:10:51;;;;;;;1.30;0.95;;;;;;;-2.65;81.50;100443.97;5095166;27;97802;-34
2022/12/14 06:13:17;;;;;;;1.13;0.98;;;;;;;-2.67;81.75;100443.16;5076001;27;98885;-32
2022/12/14 06:15:42;;;;;;;1.40;1.10;;;;;;;-2.69;81.70;100447.59;5095072;27;96569;-31
2022/12/14 06:18:07;;;;;;;0.95;0.93;;;;;;;-2.72;81.88;100437.00;5095099;27;96800;-32
2022/12/14 06:20:33;;;;;;;0.77;0.73;;;;;;;-2.75;82.05;100431.75;5094100;27;100014;-31
2022/12/14 06:22:58;;;;;;;4.35;2.08;;;;;;;-2.73;81.95;100432.63;5094130;27;106893;-32
2022/12/14 06:25:23;;;;;;;0.38;0.38;;;;;;;-2.75;82.28;100434.41;5093799;27;103938;-31
2022/12/14 06:27:53;;;;;;;1.33;0.95;;;;;;;-2.72;82.03;100441.44;5094592;27;104180;-32
2022/12/14 06:30:18;;;;;;;2.80;1.42;;;;;;;-2.71;81.88;100440.56;5075344;27;100914;-32
2022/12/14 06:32:43;;;;;;;1.23;1.02;;;;;;;-2.76;81.64;100432.69;5094633;27;97794;-31
2022/12/14 06:35:09;;;;;;;2.42;2.22;;;;;;;-2.74;81.69;100444.13;5094286;27;99639;-32
2022/12/14 06:37:34;;;;;;;0.95;0.85;;;;;;;-2.77;81.51;100439.72;5094833;27;99903;-31
2022/12/14 06:39:59;;;;;;;1.00;0.90;;;;;;;-2.85;81.91;100424.84;5075599;27;98356;-32
2022/12/14 06:42:25;;;;;;;1.13;1.05;;;;;;;-2.81;81.45;100440.69;5094348;27;97761;-32
2022/12/14 06:44:50;;;;;;;2.50;1.27;;;;;;;-2.84;81.28;100438.06;5094911;27;96485;-32
2022/12/14 06:47:15;;;;;;;2.20;1.05;;;;;;;-2.88;81.28;100443.44;5095007;27;96818;-32
2022/12/14 06:49:40;;;;;;;0.63;0.63;;;;;;;-2.89;81.23;100441.69;5094318;27;97264;-31
2022/12/14 06:52:06;;;;;;;1.80;1.35;;;;;;;-2.91;81.26;100438.16;5093666;27;110169;-32
2022/12/14 06:54:31;;;;;;;4.18;2.63;;;;;;;-2.93;81.48;100438.22;5093522;27;96543;-33
2022/12/14 06:56:56;;;;;;;2.05;1.92;;;;;;;-2.97;81.74;100436.47;5075101;27;108950;-31
2022/12/14 06:59:22;;;;;;;1.30;1.20;;;;;;;-2.96;81.55;100437.34;5093677;27;105835;-32
2022/12/14 07:01:47;;;;;;;1.65;1.55;;;;;;;-3.00;81.72;100445.34;5093996;27;99131;-31
2022/12/14 07:04:15;;;;;;;6.80;2.70;;;;;;;-3.02;81.44;100441.84;5094225;27;96474;-32
2022/12/14 07:06:40;;;;;;;1.52;1.38;;;;;;;-3.01;81.59;100448.88;5093665;27;96867;-31
2022/12/14 07:09:10;;;;;;;2.28;1.27;;;;;;;-3.03;81.53;100434.81;5093964;27;98008;-32
2022/12/14 07:11:35;;;;;;;1.25;1.15;;;;;;;-3.05;82.16;100449.84;5075661;27;101302;-32
2022/12/14 07:14:04;;;;;;;0.63;0.52;;;;;;;-3.08;81.65;100443.69;5094086;27;98292;-31
2022/12/14 07:16:31;;;;;;;0.60;0.60;;;;;;;-3.05;81.78;100447.19;5093897;27;96888;-31
2022/12/14 07:18:56;;;;;;;1.55;1.45;;;;;;;-3.10;81.58;100451.66;5074509;27;101264;-32
2022/12/14 07:21:23;;;;;;;0.63;0.60;;;;;;;-3.13;81.44;100453.47;5075152;27;99062;-31
2022/12/14 07:23:51;;;;;;;2.15;1.70;;;;;;;-3.16;81.49;100456.16;5074589;27;96712;-31
2022/12/14 07:26:17;;;;;;;0.95;0.77;;;;;;;-3.22;81.15;100462.38;5075418;27;96716;-32
2022/12/14 07:28:44;;;;;;;1.27;1.17;;;;;;;-3.26;82.08;100458.91;5093722;27;97958;-31
2022/12/14 07:31:12;;;;;;;4.35;2.63;;;;;;;-3.26;82.00;100463.34;5074938;27;100908;-32
2022/12/14 07:33:38;;;;;;;2.00;1.63;;;;;;;-3.30;82.16;100458.97;5074732;27;96683;-31
2022/12/14 07:36:06;;;;;;;0.47;0.47;;;;;;;-3.28;82.15;100462.47;5093213;27;96725;-32
2022/12/14 07:38:33;;;;;;;0.80;0.80;;;;;;;-3.29;82.02;100451.00;5075038;27;100863;-32
2022/12/14 07:41:07;;;;;;;1.05;1.05;;;;;;;-3.29;82.00;100458.94;5074842;27;100960;-31
2022/12/14 07:43:32;;;;;;;0.77;0.73;;;;;;;-3.32;81.54;100460.75;5093058;27;96474;-32
2022/12/14 07:46:04;;;;;;;0.50;0.50;;;;;;;-3.34;81.75;100452.81;5093596;27;96674;-32
2022/12/14 07:48:29;;;;;;;2.40;0.60;;;;;;;-3.35;81.57;100461.66;5074669;27;102202;-32
2022/12/14 07:51:10;;;;;;;1.05;0.98;;;;;;;-3.33;81.38;100466.94;5074767;27;100950;-32
2022/12/14 07:53:37;;;;;;;1.63;0.85;;;;;;;-3.31;81.59;100468.69;5093697;27;96626;-33
2022/12/14 07:56:06;;;;;;;0.57;0.55;;;;;;;-3.34;81.52;100462.53;5074788;27;96747;-32
2022/12/14 07:58:32;;;;;;;1.20;1.10;;;;;;;-3.31;81.64;100478.38;5074480;27;102828;-31
2022/12/14 08:01:10;;;;;;;1.65;1.55;;;;;;;-3.33;80.69;100474.88;5074960;27;100749;-32
2022/12/14 08:03:36;;;;;;;1.42;1.33;;;;;;;-3.35;81.18;100474.91;5093431;27;96803;-31
2022/12/14 08:06:09;;;;;;;2.22;1.73;;;;;;;-3.36;81.56;100473.16;5093167;27;97095;-31
2022/12/14 08:08:35;;;;;;;0.93;0.65;;;;;;;-3.39;81.06;100467.88;5073994;27;100747;-31
2022/12/14 08:11:01;;;;;;;0.60;0.60;;;;;;;-3.37;81.20;100474.03;5074383;27;101079;-32
2022/12/14 08:13:26;;;;;;;1.20;1.08;;;;;;;-3.39;81.89;100477.59;5093067;27;96596;-32
2022/12/14 08:15:52;;;;;;;0.93;0.88;;;;;;;-3.43;81.34;100477.63;5093145;27;96597;-32
2022/12/14 08:18:17;;;;;;;0.43;0.43;;;;;;;-3.42;80.82;100482.03;5093183;27;97890;-32
2022/12/14 08:20:42;;;;;;;0.88;0.82;;;;;;;-3.45;80.74;100482.06;5092497;27;99347;-31
2022/12/14 08:23:08;;;;;;;0.85;0.85;;;;;;;-3.44;80.69;100482.94;5093225;27;96598;-31
2022/12/14 08:25:33;;;;;;;0.52;0.52;;;;;;;-3.44;80.67;100491.75;5092801;27;102076;-31
2022/12/14 08:27:58;;;;;;;1.52;1.15;;;;;;;-3.44;80.97;100486.44;5092766;27;107602;-32
2022/12/14 08:30:24;;;;;;;1.02;0.90;;;;;;;-3.42;80.70;100497.91;5092737;27;103573;-32
2022/12/14 08:32:49;;;;;;;2.58;1.70;;;;;;;-3.42;80.89;100494.38;5092505;27;96539;-31
2022/12/14 08:35:16;;;;;;;3.55;2.25;;;;;;;-3.46;80.64;100493.53;5074893;27;96846;-31
2022/12/14 08:37:41;;;;;;;1.80;1.67;;;;;;;-3.41;80.80;100498.78;5092586;27;99386;-31
2022/12/14 08:40:07;;;;;;;0.55;0.55;;;;;;;-3.43;80.54;100497.94;5092961;27;97299;-32
2022/12/14 08:42:32;;;;;;;1.95;1.17;;;;;;;-3.38;80.73;100497.88;5073889;27;96664;-32
2022/12/14 08:44:58;;;;;;;1.70;1.35;;;;;;;-3.37;80.66;100502.28;5092457;27;107041;-33
2022/12/14 08:47:23;;;;;;;1.48;1.38;;;;;;;-3.41;80.71;100498.78;5095187;27;104551;-32
2022/12/14 08:49:49;;;;;;;1.48;1.38;;;;;;;-3.38;80.33;100503.16;5096762;27;97803;-32
2022/12/14 08:52:15;;;;;;;1.17;1.10;;;;;;;-3.37;80.54;100499.63;5096072;27;103790;-33
2022/12/14 08:54:40;;;;;;;0.63;0.60;;;;;;;-3.38;79.76;100492.56;5077594;27;96768;-33
2022/12/14 08:57:05;;;;;;;5.45;2.05;;;;;;;-3.35;80.57;100495.22;5095514;27;97941;-32
2022/12/14 08:59:31;;;;;;;1.67;1.58;;;;;;;-3.33;80.37;100504.00;5095950;27;99357;-31
2022/12/14 09:01:56;;;;;;;2.42;2.08;;;;;;;-3.33;80.34;100489.00;5096544;27;96522;-33
2022/12/14 09:04:22;;;;;;;1.88;1.45;;;;;;;-3.30;79.96;100486.31;5095912;27;98623;-34
2022/12/14 09:06:47;;;;;;;3.92;2.72;;;;;;;-3.28;80.42;100491.59;5096095;27;97983;-32
2022/12/14 09:09:12;;;;;;;0.57;0.52;;;;;;;-3.29;80.06;100489.81;5095773;27;98917;-32
2022/12/14 09:11:37;;;;;;;1.40;1.30;;;;;;;-3.23;80.51;100495.94;5095555;27;99331;-32
2022/12/14 09:14:03;;;;;;;0.88;0.88;;;;;;;-3.22;79.87;100499.47;5096419;27;96787;-32
2022/12/14 09:16:28;;;;;;;2.13;1.77;;;;;;;-3.17;80.30;100502.97;5095817;27;101112;-31
2022/12/14 09:18:54;;;;;;;1.65;1.30;;;;;;;-3.18;80.15;100506.50;5095615;27;97834;-33
2022/12/14 09:21:20;;;;;;;2.85;1.70;;;;;;;-3.20;80.02;100492.38;5076726;27;97972;-31
2022/12/14 09:23:46;;;;;;;6.53;2.13;;;;;;;-3.11;79.61;100500.22;5076756;27;96963;-32
2022/12/14 09:26:15;;;;;;;1.35;0.85;;;;;;;-3.12;79.51;100489.63;5095504;27;97925;-31
2022/12/14 09:28:44;;;;;;;2.75;2.20;;;;;;;-3.06;79.51;100503.69;5095622;27;97885;-32
2022/12/14 09:31:13;;;;;;;1.35;1.25;;;;;;;-2.98;79.83;100495.66;5076956;27;96650;-32
2022/12/14 09:33:39;;;;;;;2.88;1.83;;;;;;;-2.90;79.75;100501.75;5095648;27;96822;-32
2022/12/14 09:36:16;;;;;;;6.13;3.78;;;;;;;-2.85;79.57;100502.56;5076943;27;101052;-31
2022/12/14 09:38:42;;;;;;;2.50;1.70;;;;;;;-2.72;80.13;100510.34;5076989;27;100924;-31
2022/12/14 09:41:26;;;;;;;2.42;1.95;;;;;;;-2.63;79.69;100508.47;5076962;27;96586;-32
2022/12/14 09:44:15;;;;;;;2.15;1.77;;;;;;;-2.54;79.37;100510.13;5076919;27;97156;-31
2022/12/14 09:46:53;;;;;;;1.48;1.38;;;;;;;-2.45;79.07;100517.09;5076276;27;101368;-31
2022/12/14 09:49:29;;;;;;;2.15;1.00;;;;;;;-2.36;79.25;100511.63;5095388;27;97807;-31
2022/12/14 09:51:59;;;;;;;3.17;1.35;;;;;;;-2.29;79.02;100512.44;5076713;27;97459;-32
2022/12/14 09:54:28;;;;;;;0.43;0.43;;;;;;;-2.20;78.72;100512.28;5076537;27;96942;-32
2022/12/14 09:56:58;;;;;;;0.30;0.30;;;;;;;-2.09;78.83;100518.31;5076285;27;100938;-31
2022/12/14 09:59:27;;;;;;;1.48;1.33;;;;;;;-2.00;78.48;100511.97;5075733;27;101526;-31
2022/12/14 10:01:58;;;;;;;9.90;2.00;;;;;;;-1.90;78.62;100513.63;5076640;27;96523;-32
2022/12/14 10:04:59;;;;;;;1.37;1.00;;;;;;;-1.79;77.98;100516.97;5077001;27;96663;-31
2022/12/14 10:07:48;;;;;;;0.60;0.60;;;;;;;-1.71;77.61;100501.78;5076314;27;97803;-33
2022/12/14 10:10:50;;;;;;;1.20;0.90;;;;;;;-1.61;77.31;100510.47;5076333;27;101059;-32
2022/12/14 10:13:45;;;;;;;3.13;2.08;;;;;;;-1.50;76.92;100507.66;5094522;27;96487;-32
2022/12/14 10:16:27;;;;;;;1.23;0.77;;;;;;;-1.39;77.42;100504.78;5095236;27;96754;-31
2022/12/14 10:19:18;;;;;;;0.63;0.63;;;;;;;-1.29;76.47;100509.91;5075945;27;100804;-32
2022/12/14 10:21:49;;;;;;;2.05;1.50;;;;;;;-1.16;76.77;100512.34;5094988;27;97696;-32
2022/12/14 10:24:21;;;;;;;0.98;0.35;;;;;;;-1.01;75.62;100513.81;5075404;27;97337;-31
2022/12/14 10:26:52;;;;;;;1.00;0.90;;;;;;;-0.89;75.47;100495.81;5076128;27;96789;-31
2022/12/14 10:29:39;;;;;;;1.02;0.93;;;;;;;-0.66;74.43;100497.16;5075986;27;101208;-32
2022/12/14 10:32:33;;;;;;;0.95;0.75;;;;;;;-0.43;73.90;100494.88;5095230;27;97451;-32
2022/12/14 10:35:11;;;;;;;2.08;1.17;;;;;;;-0.01;73.51;100496.56;5094247;27;96729;-32
2022/12/14 10:37:41;;;;;;;0.77;0.43;;;;;;;0.40;71.31;100503.53;5076006;27;96779;-31
2022/12/14 10:40:17;;;;;;;9.10;3.45;;;;;;;0.71;69.87;100501.84;5075363;27;101421;-32
2022/12/14 10:42:57;;;;;;;10.90;4.45;;;;;;;0.93;68.86;100502.13;5094713;27;97863;-31
2022/12/14 10:45:58;;;;;;;12.90;6.68;;;;;;;1.09;68.28;100497.25;5094362;27;96674;-31
2022/12/14 10:48:36;;;;;;;7.82;4.63;;;;;;;1.28;67.54;100502.03;5094477;27;96676;-32
2022/12/14 10:51:13;;;;;;;2.03;1.38;;;;;;;1.43;66.46;100491.81;5075658;27;100792;-34
2022/12/14 10:53:54;;;;;;;0.80;0.75;;;;;;;1.55;66.83;100488.81;5075461;27;102913;-32
2022/12/14 10:56:25;;;;;;;1.60;1.45;;;;;;;1.66;64.96;100481.31;5075814;27;96579;-31
2022/12/14 10:59:15;;;;;;;1.63;1.23;;;;;;;1.76;66.36;100475.69;5076264;27;96726;-31
2022/12/14 11:01:41;;;;;;;1.55;1.00;;;;;;;1.89;64.20;100474.41;5094209;27;97948;-31
2022/12/14 11:04:28;;;;;;;1.00;0.93;;;;;;;1.97;64.74;100467.00;5075287;27;104194;-32
2022/12/14 11:06:54;;;;;;;1.08;0.95;;;;;;;2.00;65.39;100466.03;5075254;27;97223;-31
2022/12/14 11:09:21;;;;;;;3.22;1.90;;;;;;;2.04;64.13;100467.69;5075356;27;96912;-32
2022/12/14 11:11:47;;;;;;;0.73;0.73;;;;;;;2.07;63.46;100465.81;5075184;27;100803;-31
2022/12/14 11:14:21;;;;;;;0.73;0.57;;;;;;;2.10;64.43;100460.34;5093653;27;99082;-32
2022/12/14 11:16:46;;;;;;;1.98;1.02;;;;;;;2.01;63.76;100463.31;5075341;27;96682;-33
2022/12/14 11:19:18;;;;;;;1.50;1.30;;;;;;;1.66;63.80;100459.97;5093660;27;96588;-31
2022/12/14 11:21:43;;;;;;;2.42;1.58;;;;;;;1.22;65.44;100467.53;5075288;27;100919;-31
2022/12/14 11:24:27;;;;;;;5.80;4.10;;;;;;;0.94;66.80;100467.44;5071435;27;100769;-31
2022/12/14 11:26:57;;;;;;;5.18;3.28;;;;;;;0.77;68.48;100467.91;5071582;27;96641;-31
2022/12/14 11:29:26;;;;;;;2.03;1.63;;;;;;;0.67;68.71;100466.44;5071916;27;96900;-32
2022/12/14 11:31:51;;;;;;;1.38;1.05;;;;;;;0.60;69.79;100473.72;5072596;27;98196;-32
2022/12/14 11:34:41;;;;;;;0.68;0.68;;;;;;;0.55;70.30;100466.72;5073065;27;97307;-32
2022/12/14 11:37:19;;;;;;;1.25;1.02;;;;;;;0.49;69.85;100475.78;5071895;27;96765;-32
2022/12/14 11:39:49;;;;;;;1.00;0.77;;;;;;;0.47;71.20;100479.41;5073327;27;96568;-32
2022/12/14 11:42:18;;;;;;;0.28;0.28;;;;;;;0.51;70.12;100478.41;5071497;27;101959;-31
2022/12/14 11:44:44;;;;;;;0.90;0.85;;;;;;;0.80;70.21;100485.63;5071354;27;101660;-31
2022/12/14 11:47:16;;;;;;;2.35;0.75;;;;;;;0.95;69.38;100489.66;5071603;27;96668;-32
2022/12/14 11:49:41;;;;;;;4.35;1.25;;;;;;;1.06;69.35;100487.56;5071898;27;96668;-33
2022/12/14 11:52:11;;;;;;;2.10;1.42;;;;;;;1.28;67.98;100491.34;5072670;27;98548;-31
2022/12/14 11:54:39;;;;;;;1.10;1.00;;;;;;;1.45;68.19;100492.66;5072646;27;97849;-32
2022/12/14 11:57:10;;;;;;;2.08;1.45;;;;;;;1.47;68.04;100497.00;5071042;27;97241;-31
2022/12/14 11:59:41;;;;;;;0.63;0.63;;;;;;;1.43;66.67;100495.38;5072934;27;96806;-33